Time;durP1;ratioP1;P1;durP2;ratioP2;P2;SDS_P1;SDS_P2;PMS_P1;PMS_P2;Temp;Humidity;BMP_temperature;BMP_pressure;BME280_temperature;BME280_humidity;BME280_pressure;Samples;Min_cycle;Max_cycle;Signal;HPM_P1;HPM_P2
2021/05/11 00:00:37;;;;;;;;;;;;;;;;;;1470809;40;6992;-62
2021/05/11 00:01:39;;;;;;;;;;;;;;;;;;1470922;40;8380;-61
2021/05/11 00:02:41;;;;;;;;;;;;;;;;;;1471206;40;6995;-60
2021/05/11 00:03:44;;;;;;;;;;;;;;;;;;1467317;40;6992;-62
2021/05/11 00:04:46;;;;;;;;;;;;;;;;;;1467166;40;7040;-62
2021/05/11 00:05:48;;;;;;;;;;;;;;;;;;1470516;40;7035;-63
2021/05/11 00:06:50;;;;;;;;;;;;;;;;;;1471161;40;7023;-63
2021/05/11 00:07:55;;;;;;;;;;;;;;;;;;1467186;40;7011;-62
2021/05/11 00:08:57;;;;;;;;;;;;;;;;;;1470531;40;7020;-62
2021/05/11 00:09:58;;;;;;;;;;;;;;;;;;1470891;40;6992;-61
2021/05/11 00:11:01;;;;;;;;;;;;;;;;;;1470887;40;7108;-64
2021/05/11 00:12:13;;;;;;;;;;;;;;;;;;1467199;40;7036;-61
2021/05/11 00:13:15;;;;;;;;;;;;;;;;;;1466728;40;7112;-61
2021/05/11 00:14:17;;;;;;;;;;;;;;;;;;1466719;40;7039;-60
2021/05/11 00:15:19;;;;;;;;;;;;;;;;;;1467044;40;7200;-60
2021/05/11 00:16:21;;;;;;;;;;;;;;;;;;1467107;40;7120;-61
2021/05/11 00:17:23;;;;;;;;;;;;;;;;;;1469112;40;7221;-61
2021/05/11 00:18:26;;;;;;;;;;;;;;;;;;1466473;40;7040;-62
2021/05/11 00:19:29;;;;;;;;;;;;;;;;;;1468927;40;7027;-63
2021/05/11 00:20:31;;;;;;;;;;;;;;;;;;1466827;40;6991;-63
2021/05/11 00:21:33;;;;;;;;;;;;;;;;;;1468068;40;8896;-61
2021/05/11 00:22:35;;;;;;;;;;;;;;;;;;1474068;40;6992;-63
2021/05/11 00:23:37;;;;;;;;;;;;;;;;;;1474548;40;7870;-60
2021/05/11 00:24:39;;;;;;;;;;;;;;;;;;1474863;40;6999;-62
2021/05/11 00:25:41;;;;;;;;;;;;;;;;;;1474587;40;7016;-63
2021/05/11 00:26:43;;;;;;;;;;;;;;;;;;1475014;40;6992;-62
2021/05/11 00:27:46;;;;;;;;;;;;;;;;;;1474848;40;7039;-63
2021/05/11 00:28:48;;;;;;;;;;;;;;;;;;1478861;40;6992;-63
2021/05/11 00:29:50;;;;;;;;;;;;;;;;;;1475897;40;8907;-63
2021/05/11 00:30:53;;;;;;;;;;;;;;;;;;1474774;40;7008;-61
2021/05/11 00:31:55;;;;;;;;;;;;;;;;;;1474830;40;6999;-63
2021/05/11 00:32:57;;;;;;;;;;;;;;;;;;1474887;40;7132;-61
2021/05/11 00:33:59;;;;;;;;;;;;;;;;;;1474793;40;6992;-61
2021/05/11 00:35:00;;;;;;;;;;;;;;;;;;1477025;40;6991;-62
2021/05/11 00:36:03;;;;;;;;;;;;;;;;;;1478563;40;6992;-65
2021/05/11 00:37:05;;;;;;;;;;;;;;;;;;1479305;40;7027;-64
2021/05/11 00:38:06;;;;;;;;;;;;;;;;;;1479089;40;7984;-65
2021/05/11 00:39:08;;;;;;;;;;;;;;;;;;1479435;40;7003;-61
2021/05/11 00:40:11;;;;;;;;;;;;;;;;;;1478970;40;6991;-61
2021/05/11 00:41:13;;;;;;;;;;;;;;;;;;1479050;40;7031;-64
2021/05/11 00:42:15;;;;;;;;;;;;;;;;;;1478831;40;7027;-61
2021/05/11 00:43:17;;;;;;;;;;;;;;;;;;1478830;40;7000;-62
2021/05/11 00:44:23;;;;;;;;;;;;;;;;;;1479005;40;7864;-63
2021/05/11 00:45:26;;;;;;;;;;;;;;;;;;1479394;40;7035;-63
2021/05/11 00:46:29;;;;;;;;;;;;;;;;;;1475159;40;6999;-63
2021/05/11 00:47:32;;;;;;;;;;;;;;;;;;1475597;40;7120;-61
2021/05/11 00:48:34;;;;;;;;;;;;;;;;;;1479118;40;7027;-63
2021/05/11 00:49:37;;;;;;;;;;;;;;;;;;1479009;40;7003;-61
2021/05/11 00:50:39;;;;;;;;;;;;;;;;;;1478893;40;7040;-63
2021/05/11 00:51:41;;;;;;;;;;;;;;;;;;1479163;40;7000;-63
2021/05/11 00:52:43;;;;;;;;;;;;;;;;;;1478874;40;7054;-60
2021/05/11 00:53:45;;;;;;;;;;;;;;;;;;1479053;40;7008;-61
2021/05/11 00:54:48;;;;;;;;;;;;;;;;;;1479013;40;7027;-61
2021/05/11 00:55:50;;;;;;;;;;;;;;;;;;1479166;40;7023;-61
2021/05/11 00:56:53;;;;;;;;;;;;;;;;;;1479283;40;7040;-62
2021/05/11 00:57:55;;;;;;;;;;;;;;;;;;1479233;40;7013;-62
2021/05/11 00:58:57;;;;;;;;;;;;;;;;;;1475456;40;7007;-61
2021/05/11 00:59:59;;;;;;;;;;;;;;;;;;1475134;40;7007;-62
2021/05/11 01:01:02;;;;;;;;;;;;;;;;;;1475189;40;7956;-62
2021/05/11 01:02:05;;;;;;;;;;;;;;;;;;1474872;40;7003;-61
2021/05/11 01:03:07;;;;;;;;;;;;;;;;;;1481685;40;7375;-61
2021/05/11 01:04:09;;;;;;;;;;;;;;;;;;1482176;40;7040;-60
2021/05/11 01:05:12;;;;;;;;;;;;;;;;;;1477087;40;7416;-61
2021/05/11 01:06:14;;;;;;;;;;;;;;;;;;1475157;40;7864;-61
2021/05/11 01:07:16;;;;;;;;;;;;;;;;;;1478382;40;7015;-61
2021/05/11 01:08:18;;;;;;;;;;;;;;;;;;1478516;40;6999;-62
2021/05/11 01:09:21;;;;;;;;;;;;;;;;;;1474902;40;7224;-60
2021/05/11 01:10:23;;;;;;;;;;;;;;;;;;1475271;40;6991;-60
2021/05/11 01:11:25;;;;;;;;;;;;;;;;;;1474741;40;6992;-59
2021/05/11 01:12:27;;;;;;;;;;;;;;;;;;1475067;40;7900;-63
2021/05/11 01:13:29;;;;;;;;;;;;;;;;;;1478654;40;6991;-63
2021/05/11 01:14:31;;;;;;;;;;;;;;;;;;1478130;40;7098;-62
2021/05/11 01:15:35;;;;;;;;;;;;;;;;;;1478998;40;7124;-62
2021/05/11 01:16:39;;;;;;;;;;;;;;;;;;1475747;40;7015;-61
2021/05/11 01:17:49;;;;;;;;;;;;;;;;;;1475226;40;7036;-61
2021/05/11 01:18:53;;;;;;;;;;;;;;;;;;1477842;40;7031;-63
2021/05/11 01:19:58;;;;;;;;;;;;;;;;;;1478469;40;7204;-62
2021/05/11 01:21:16;;;;;;;;;;;;;;;;;;1478889;40;7082;-64
2021/05/11 01:25:05;;;;;;;;;;;;;;;;;;1478798;40;7140;-62
2021/05/11 01:26:13;;;;;;;;;;;;;;;;;;1478520;40;7015;-62
2021/05/11 01:45:53;;;;;;;;;;;;;;;;;;1478904;40;7007;-60
2021/05/11 01:46:38;;;;;;;;;;;;;;;;;;1476533;40;6992;-62
2021/05/11 02:22:45;;;;;;;;;;;;;;;;;;1477931;40;6999;-62
2021/05/11 02:23:47;;;;;;;;;;;;;;;;;;1478566;40;7004;-61
2021/05/11 02:24:49;;;;;;;;;;;;;;;;;;1475421;40;7118;-61
2021/05/11 02:25:51;;;;;;;;;;;;;;;;;;1478451;40;7027;-61
2021/05/11 02:26:53;;;;;;;;;;;;;;;;;;1477577;40;7111;-61
2021/05/11 02:27:55;;;;;;;;;;;;;;;;;;1478540;40;7020;-62
2021/05/11 02:28:57;;;;;;;;;;;;;;;;;;1476175;40;7028;-63
2021/05/11 02:29:59;;;;;;;;;;;;;;;;;;1475568;40;6992;-61
2021/05/11 02:31:00;;;;;;;;;;;;;;;;;;1478384;40;7184;-62
2021/05/11 02:32:03;;;;;;;;;;;;;;;;;;1478746;40;7833;-64
2021/05/11 02:33:05;;;;;;;;;;;;;;;;;;1478860;40;7901;-62
2021/05/11 02:34:07;;;;;;;;;;;;;;;;;;1478905;40;7027;-63
2021/05/11 02:35:10;;;;;;;;;;;;;;;;;;1478159;40;7957;-61
2021/05/11 02:36:12;;;;;;;;;;;;;;;;;;1478798;40;7008;-62
2021/05/11 02:37:13;;;;;;;;;;;;;;;;;;1478912;40;7016;-61
2021/05/11 02:38:16;;;;;;;;;;;;;;;;;;1478760;40;7128;-62
2021/05/11 02:39:18;;;;;;;;;;;;;;;;;;1478624;40;7062;-62
2021/05/11 02:40:22;;;;;;;;;;;;;;;;;;1478705;40;7027;-61
2021/05/11 02:41:24;;;;;;;;;;;;;;;;;;1478722;40;7008;-61
2021/05/11 02:42:26;;;;;;;;;;;;;;;;;;1478789;40;7063;-62
2021/05/11 02:43:37;;;;;;;;;;;;;;;;;;1478500;40;7934;-61
2021/05/11 02:44:42;;;;;;;;;;;;;;;;;;1478733;40;6987;-60
2021/05/11 02:45:44;;;;;;;;;;;;;;;;;;1477827;40;7004;-62
2021/05/11 02:46:46;;;;;;;;;;;;;;;;;;1474889;40;7161;-60
2021/05/11 02:47:49;;;;;;;;;;;;;;;;;;1475017;40;6996;-61
2021/05/11 02:48:51;;;;;;;;;;;;;;;;;;1474982;40;7008;-63
2021/05/11 02:49:53;;;;;;;;;;;;;;;;;;1475027;40;7040;-60
2021/05/11 02:50:55;;;;;;;;;;;;;;;;;;1474771;40;7039;-60
2021/05/11 02:51:57;;;;;;;;;;;;;;;;;;1474524;40;7239;-61
2021/05/11 02:52:59;;;;;;;;;;;;;;;;;;1474704;40;7930;-62
2021/05/11 02:54:01;;;;;;;;;;;;;;;;;;1474849;40;6999;-63
2021/05/11 02:55:03;;;;;;;;;;;;;;;;;;1474809;40;6992;-61
2021/05/11 02:56:04;;;;;;;;;;;;;;;;;;1474980;40;6991;-62
2021/05/11 02:57:07;;;;;;;;;;;;;;;;;;1474825;40;6992;-63
2021/05/11 02:58:14;;;;;;;;;;;;;;;;;;1474800;40;7917;-62
2021/05/11 02:59:16;;;;;;;;;;;;;;;;;;1478434;40;7030;-62
2021/05/11 03:00:19;;;;;;;;;;;;;;;;;;1478218;40;7047;-63
2021/05/11 03:01:21;;;;;;;;;;;;;;;;;;1478477;40;7043;-60
2021/05/11 03:02:23;;;;;;;;;;;;;;;;;;1479071;40;7124;-62
2021/05/11 03:03:25;;;;;;;;;;;;;;;;;;1478690;40;7001;-63
2021/05/11 03:04:27;;;;;;;;;;;;;;;;;;1477993;40;7110;-60
2021/05/11 03:05:29;;;;;;;;;;;;;;;;;;1475294;40;8004;-61
2021/05/11 03:06:31;;;;;;;;;;;;;;;;;;1478270;40;6992;-62
2021/05/11 03:07:33;;;;;;;;;;;;;;;;;;1478208;40;7036;-62
2021/05/11 03:08:35;;;;;;;;;;;;;;;;;;1477060;40;7035;-61
2021/05/11 03:09:37;;;;;;;;;;;;;;;;;;1478808;40;7031;-62
2021/05/11 03:10:43;;;;;;;;;;;;;;;;;;1479101;40;7035;-62
2021/05/11 03:11:45;;;;;;;;;;;;;;;;;;1478557;40;7008;-62
2021/05/11 03:12:47;;;;;;;;;;;;;;;;;;1478873;40;6987;-62
2021/05/11 03:13:49;;;;;;;;;;;;;;;;;;1478709;40;6992;-63
2021/05/11 03:14:51;;;;;;;;;;;;;;;;;;1478814;40;7054;-62
2021/05/11 03:15:53;;;;;;;;;;;;;;;;;;1478824;40;7036;-62
2021/05/11 03:16:55;;;;;;;;;;;;;;;;;;1479017;40;7071;-62
2021/05/11 03:17:58;;;;;;;;;;;;;;;;;;1476433;40;6999;-60
2021/05/11 03:19:00;;;;;;;;;;;;;;;;;;1475628;40;7009;-63
2021/05/11 03:20:04;;;;;;;;;;;;;;;;;;1478691;40;7028;-62
2021/05/11 03:21:06;;;;;;;;;;;;;;;;;;1475266;40;7141;-61
2021/05/11 03:22:08;;;;;;;;;;;;;;;;;;1477924;40;7859;-62
2021/05/11 03:23:10;;;;;;;;;;;;;;;;;;1475615;40;7027;-60
2021/05/11 03:24:12;;;;;;;;;;;;;;;;;;1474397;40;7009;-62
2021/05/11 03:25:14;;;;;;;;;;;;;;;;;;1474479;40;7008;-61
2021/05/11 03:26:16;;;;;;;;;;;;;;;;;;1474708;40;7124;-62
2021/05/11 03:27:18;;;;;;;;;;;;;;;;;;1474759;40;7048;-59
2021/05/11 03:28:20;;;;;;;;;;;;;;;;;;1474962;40;7195;-61
2021/05/11 03:29:22;;;;;;;;;;;;;;;;;;1474956;40;6995;-60
2021/05/11 03:30:24;;;;;;;;;;;;;;;;;;1474876;40;7047;-61
2021/05/11 03:31:31;;;;;;;;;;;;;;;;;;1475172;40;6999;-61
2021/05/11 03:32:33;;;;;;;;;;;;;;;;;;1475510;40;7855;-63
2021/05/11 03:33:35;;;;;;;;;;;;;;;;;;1475337;40;7122;-62
2021/05/11 03:34:38;;;;;;;;;;;;;;;;;;1475489;40;7031;-62
2021/05/11 03:35:40;;;;;;;;;;;;;;;;;;1478544;40;7047;-62
2021/05/11 03:36:41;;;;;;;;;;;;;;;;;;1479421;40;7140;-62
2021/05/11 03:37:43;;;;;;;;;;;;;;;;;;1475653;40;7056;-60
2021/05/11 03:38:49;;;;;;;;;;;;;;;;;;1475710;40;7000;-62
2021/05/11 03:39:51;;;;;;;;;;;;;;;;;;1475657;40;7000;-63
2021/05/11 03:40:54;;;;;;;;;;;;;;;;;;1475324;40;7040;-60
2021/05/11 03:42:00;;;;;;;;;;;;;;;;;;1475224;40;6999;-62
2021/05/11 03:43:10;;;;;;;;;;;;;;;;;;1475725;40;6991;-61
2021/05/11 03:44:17;;;;;;;;;;;;;;;;;;1479260;40;6963;-62
2021/05/11 03:45:24;;;;;;;;;;;;;;;;;;1479462;40;7934;-63
2021/05/11 03:46:27;;;;;;;;;;;;;;;;;;1475650;40;7261;-61
2021/05/11 03:47:37;;;;;;;;;;;;;;;;;;1475249;40;7035;-62
2021/05/11 03:48:39;;;;;;;;;;;;;;;;;;1476411;40;7035;-62
2021/05/11 03:49:42;;;;;;;;;;;;;;;;;;1475293;40;7079;-61
2021/05/11 03:50:45;;;;;;;;;;;;;;;;;;1475134;40;6999;-60
2021/05/11 03:51:47;;;;;;;;;;;;;;;;;;1475231;40;7008;-61
2021/05/11 03:52:50;;;;;;;;;;;;;;;;;;1475367;40;7009;-61
2021/05/11 03:53:52;;;;;;;;;;;;;;;;;;1475058;40;7861;-62
2021/05/11 03:54:55;;;;;;;;;;;;;;;;;;1475306;40;7891;-61
2021/05/11 03:55:57;;;;;;;;;;;;;;;;;;1475416;40;7869;-62
2021/05/11 03:56:59;;;;;;;;;;;;;;;;;;1475287;40;7008;-61
2021/05/11 03:58:02;;;;;;;;;;;;;;;;;;1478871;40;7939;-62
2021/05/11 03:59:05;;;;;;;;;;;;;;;;;;1475554;40;7011;-60
2021/05/11 04:00:08;;;;;;;;;;;;;;;;;;1475405;40;7007;-60
2021/05/11 04:01:11;;;;;;;;;;;;;;;;;;1478853;40;7220;-61
2021/05/11 04:02:13;;;;;;;;;;;;;;;;;;1479388;40;7890;-61
2021/05/11 04:03:16;;;;;;;;;;;;;;;;;;1478937;40;7024;-62
2021/05/11 04:04:20;;;;;;;;;;;;;;;;;;1479170;40;7007;-60
2021/05/11 04:05:22;;;;;;;;;;;;;;;;;;1476680;40;7007;-62
2021/05/11 04:06:25;;;;;;;;;;;;;;;;;;1476069;40;8461;-60
2021/05/11 04:07:28;;;;;;;;;;;;;;;;;;1479118;40;7043;-62
2021/05/11 04:09:42;;;;;;;;;;;;;;;;;;1479300;40;7007;-63
2021/05/11 04:10:47;;;;;;;;;;;;;;;;;;1479050;40;7105;-60
2021/05/11 04:16:25;;;;;;;;;;;;;;;;;;1478849;40;7954;-62
2021/05/11 04:17:27;;;;;;;;;;;;;;;;;;1478767;40;7027;-62
2021/05/11 04:18:30;;;;;;;;;;;;;;;;;;1474898;40;7035;-62
2021/05/11 04:19:34;;;;;;;;;;;;;;;;;;1478540;40;7133;-62
2021/05/11 04:20:36;;;;;;;;;;;;;;;;;;1474977;40;7038;-61
2021/05/11 04:21:39;;;;;;;;;;;;;;;;;;1477652;40;7909;-62
2021/05/11 04:22:41;;;;;;;;;;;;;;;;;;1478309;40;7023;-62
2021/05/11 04:23:44;;;;;;;;;;;;;;;;;;1478820;40;7004;-60
2021/05/11 04:24:47;;;;;;;;;;;;;;;;;;1478278;40;7035;-61
2021/05/11 04:25:49;;;;;;;;;;;;;;;;;;1478955;40;7062;-62
2021/05/11 04:26:51;;;;;;;;;;;;;;;;;;1478496;40;7877;-62
2021/05/11 04:27:54;;;;;;;;;;;;;;;;;;1478681;40;7188;-60
2021/05/11 04:28:56;;;;;;;;;;;;;;;;;;1478658;40;7915;-63
2021/05/11 04:30:01;;;;;;;;;;;;;;;;;;1478694;40;7008;-62
2021/05/11 04:31:08;;;;;;;;;;;;;;;;;;1478721;40;7111;-61
2021/05/11 04:32:10;;;;;;;;;;;;;;;;;;1478984;40;7007;-61
2021/05/11 04:33:13;;;;;;;;;;;;;;;;;;1478978;40;8106;-61
2021/05/11 04:34:15;;;;;;;;;;;;;;;;;;1478760;40;7199;-62
2021/05/11 04:35:17;;;;;;;;;;;;;;;;;;1478021;40;7999;-61
2021/05/11 04:36:20;;;;;;;;;;;;;;;;;;1478853;40;7027;-61
2021/05/11 04:37:22;;;;;;;;;;;;;;;;;;1479054;40;7907;-62
2021/05/11 04:38:25;;;;;;;;;;;;;;;;;;1479185;40;7876;-60
2021/05/11 04:39:27;;;;;;;;;;;;;;;;;;1478977;40;7003;-63
2021/05/11 04:40:29;;;;;;;;;;;;;;;;;;1479518;40;7904;-61
2021/05/11 04:41:32;;;;;;;;;;;;;;;;;;1479294;40;7963;-63
2021/05/11 04:42:34;;;;;;;;;;;;;;;;;;1475287;40;9140;-62
2021/05/11 04:43:39;;;;;;;;;;;;;;;;;;1475075;40;7023;-60
2021/05/11 04:44:41;;;;;;;;;;;;;;;;;;1475326;40;7003;-61
2021/05/11 04:45:45;;;;;;;;;;;;;;;;;;1475377;40;7003;-62
2021/05/11 04:46:51;;;;;;;;;;;;;;;;;;1475187;40;7031;-61
2021/05/11 04:47:54;;;;;;;;;;;;;;;;;;1475220;40;7016;-61
2021/05/11 04:48:58;;;;;;;;;;;;;;;;;;1475386;40;7051;-63
2021/05/11 04:50:01;;;;;;;;;;;;;;;;;;1475058;40;7007;-60
2021/05/11 04:51:03;;;;;;;;;;;;;;;;;;1478744;40;8324;-60
2021/05/11 04:52:06;;;;;;;;;;;;;;;;;;1479469;40;7286;-61
2021/05/11 04:53:10;;;;;;;;;;;;;;;;;;1479434;40;7047;-62
2021/05/11 04:54:13;;;;;;;;;;;;;;;;;;1475443;40;7023;-62
2021/05/11 04:55:16;;;;;;;;;;;;;;;;;;1474934;40;7108;-62
2021/05/11 04:56:18;;;;;;;;;;;;;;;;;;1475867;40;7024;-60
2021/05/11 04:57:21;;;;;;;;;;;;;;;;;;1475262;40;7007;-62
2021/05/11 04:58:23;;;;;;;;;;;;;;;;;;1474962;40;7039;-60
2021/05/11 04:59:26;;;;;;;;;;;;;;;;;;1475250;40;7012;-61
2021/05/11 05:00:28;;;;;;;;;;;;;;;;;;1474944;40;7040;-61
2021/05/11 05:01:30;;;;;;;;;;;;;;;;;;1478839;40;7007;-63
2021/05/11 05:02:38;;;;;;;;;;;;;;;;;;1479164;40;7010;-62
2021/05/11 05:03:43;;;;;;;;;;;;;;;;;;1479105;40;7008;-64
2021/05/11 05:04:46;;;;;;;;;;;;;;;;;;1478773;40;7998;-61
2021/05/11 05:05:48;;;;;;;;;;;;;;;;;;1475041;40;7889;-61
2021/05/11 05:06:50;;;;;;;;;;;;;;;;;;1474905;40;7027;-62
2021/05/11 05:07:53;;;;;;;;;;;;;;;;;;1475120;40;6996;-62
2021/05/11 05:08:56;;;;;;;;;;;;;;;;;;1475016;40;7000;-62
2021/05/11 05:09:58;;;;;;;;;;;;;;;;;;1475349;40;7923;-62
2021/05/11 05:11:01;;;;;;;;;;;;;;;;;;1475247;40;7901;-61
2021/05/11 05:12:04;;;;;;;;;;;;;;;;;;1475484;40;7035;-61
2021/05/11 05:13:07;;;;;;;;;;;;;;;;;;1476039;40;7024;-63
2021/05/11 05:14:10;;;;;;;;;;;;;;;;;;1476196;40;7031;-60
2021/05/11 05:15:13;;;;;;;;;;;;;;;;;;1475263;40;7963;-60
2021/05/11 05:16:15;;;;;;;;;;;;;;;;;;1475140;40;7885;-61
2021/05/11 05:17:17;;;;;;;;;;;;;;;;;;1475285;40;7075;-63
2021/05/11 05:18:20;;;;;;;;;;;;;;;;;;1474832;40;7008;-61
2021/05/11 05:19:23;;;;;;;;;;;;;;;;;;1477484;40;7992;-62
2021/05/11 05:20:25;;;;;;;;;;;;;;;;;;1482195;40;7052;-63
2021/05/11 05:21:28;;;;;;;;;;;;;;;;;;1481221;40;7067;-61
2021/05/11 05:22:30;;;;;;;;;;;;;;;;;;1475098;40;7951;-62
2021/05/11 05:23:38;;;;;;;;;;;;;;;;;;1478529;40;7137;-61
2021/05/11 05:24:47;;;;;;;;;;;;;;;;;;1478816;40;7035;-61
2021/05/11 05:26:04;;;;;;;;;;;;;;;;;;1478757;40;9901;-61
2021/05/11 05:27:20;;;;;;;;;;;;;;;;;;1479038;40;7520;-63
2021/05/11 05:28:24;;;;;;;;;;;;;;;;;;1478661;40;7016;-60
2021/05/11 05:29:26;;;;;;;;;;;;;;;;;;1478457;40;7939;-63
2021/05/11 05:30:29;;;;;;;;;;;;;;;;;;1478896;40;7063;-62
2021/05/11 05:31:31;;;;;;;;;;;;;;;;;;1478923;40;7000;-63
2021/05/11 05:32:33;;;;;;;;;;;;;;;;;;1478753;40;7102;-62
2021/05/11 05:33:38;;;;;;;;;;;;;;;;;;1479215;40;6999;-62
2021/05/11 05:34:41;;;;;;;;;;;;;;;;;;1476634;40;7007;-61
2021/05/11 05:35:45;;;;;;;;;;;;;;;;;;1474452;40;7019;-61
2021/05/11 05:36:47;;;;;;;;;;;;;;;;;;1475483;40;7145;-61
2021/05/11 05:37:51;;;;;;;;;;;;;;;;;;1475938;40;7128;-61
2021/05/11 05:38:53;;;;;;;;;;;;;;;;;;1479111;40;7003;-61
2021/05/11 05:39:59;;;;;;;;;;;;;;;;;;1479039;40;7215;-64
2021/05/11 05:41:04;;;;;;;;;;;;;;;;;;1479444;40;7019;-63
2021/05/11 05:42:07;;;;;;;;;;;;;;;;;;1479299;40;7003;-61
2021/05/11 05:43:09;;;;;;;;;;;;;;;;;;1475521;40;7055;-61
2021/05/11 05:44:11;;;;;;;;;;;;;;;;;;1475013;40;7892;-62
2021/05/11 05:45:14;;;;;;;;;;;;;;;;;;1475072;40;7039;-63
2021/05/11 05:46:17;;;;;;;;;;;;;;;;;;1475425;40;7008;-61
2021/05/11 05:47:21;;;;;;;;;;;;;;;;;;1474891;40;7954;-62
2021/05/11 05:48:24;;;;;;;;;;;;;;;;;;1474948;40;7039;-63
2021/05/11 05:49:32;;;;;;;;;;;;;;;;;;1474953;40;7894;-62
2021/05/11 05:50:35;;;;;;;;;;;;;;;;;;1475121;40;7173;-62
2021/05/11 05:51:37;;;;;;;;;;;;;;;;;;1475266;40;8094;-62
2021/05/11 05:52:40;;;;;;;;;;;;;;;;;;1474925;40;7008;-64
2021/05/11 05:53:44;;;;;;;;;;;;;;;;;;1475109;40;7109;-62
2021/05/11 05:54:46;;;;;;;;;;;;;;;;;;1474880;40;7234;-63
2021/05/11 05:55:49;;;;;;;;;;;;;;;;;;1475001;40;7015;-62
2021/05/11 05:56:52;;;;;;;;;;;;;;;;;;1474818;40;7044;-63
2021/05/11 05:57:56;;;;;;;;;;;;;;;;;;1479023;40;7007;-62
2021/05/11 05:58:58;;;;;;;;;;;;;;;;;;1479114;40;7007;-61
2021/05/11 06:00:01;;;;;;;;;;;;;;;;;;1479183;40;7003;-62
2021/05/11 06:01:07;;;;;;;;;;;;;;;;;;1479291;40;7955;-61
2021/05/11 06:02:16;;;;;;;;;;;;;;;;;;1479304;40;7120;-62
2021/05/11 06:03:31;;;;;;;;;;;;;;;;;;1479343;40;7963;-62
2021/05/11 06:04:34;;;;;;;;;;;;;;;;;;1479341;40;7000;-62
2021/05/11 06:05:37;;;;;;;;;;;;;;;;;;1475613;40;7044;-61
2021/05/11 06:06:42;;;;;;;;;;;;;;;;;;1475546;40;8055;-65
2021/05/11 06:07:46;;;;;;;;;;;;;;;;;;1475040;40;7004;-62
2021/05/11 06:08:48;;;;;;;;;;;;;;;;;;1478332;40;7047;-62
2021/05/11 06:09:53;;;;;;;;;;;;;;;;;;1478895;40;7117;-64
2021/05/11 06:11:11;;;;;;;;;;;;;;;;;;1479057;40;8022;-62
2021/05/11 06:12:32;;;;;;;;;;;;;;;;;;1478881;40;7032;-63
2021/05/11 06:17:29;;;;;;;;;;;;;;;;;;1477876;40;7039;-63
2021/05/11 06:18:32;;;;;;;;;;;;;;;;;;1474714;40;7012;-63
2021/05/11 06:19:35;;;;;;;;;;;;;;;;;;1474523;40;7008;-63
2021/05/11 06:20:37;;;;;;;;;;;;;;;;;;1474913;40;7007;-60
2021/05/11 06:21:40;;;;;;;;;;;;;;;;;;1476979;40;7047;-63
2021/05/11 06:22:43;;;;;;;;;;;;;;;;;;1478254;40;7837;-62
2021/05/11 06:23:45;;;;;;;;;;;;;;;;;;1475015;40;7911;-64
2021/05/11 06:24:47;;;;;;;;;;;;;;;;;;1475207;40;7039;-63
2021/05/11 06:25:50;;;;;;;;;;;;;;;;;;1478945;40;7071;-64
2021/05/11 06:26:52;;;;;;;;;;;;;;;;;;1478678;40;7004;-63
2021/05/11 06:27:58;;;;;;;;;;;;;;;;;;1476222;40;7011;-62
2021/05/11 06:29:02;;;;;;;;;;;;;;;;;;1475721;40;7005;-62
2021/05/11 06:30:05;;;;;;;;;;;;;;;;;;1479254;40;7035;-61
2021/05/11 06:31:08;;;;;;;;;;;;;;;;;;1478771;40;7016;-60
2021/05/11 06:32:11;;;;;;;;;;;;;;;;;;1478716;40;7856;-64
2021/05/11 06:33:13;;;;;;;;;;;;;;;;;;1478921;40;7003;-63
2021/05/11 06:34:16;;;;;;;;;;;;;;;;;;1478416;40;8815;-63
2021/05/11 06:35:18;;;;;;;;;;;;;;;;;;1477948;40;7071;-62
2021/05/11 06:36:21;;;;;;;;;;;;;;;;;;1478762;40;7035;-63
2021/05/11 06:37:24;;;;;;;;;;;;;;;;;;1478394;40;7157;-63
2021/05/11 06:38:26;;;;;;;;;;;;;;;;;;1478304;40;7070;-63
2021/05/11 06:39:29;;;;;;;;;;;;;;;;;;1479063;40;7066;-62
2021/05/11 06:40:32;;;;;;;;;;;;;;;;;;1475655;40;7959;-63
2021/05/11 06:41:36;;;;;;;;;;;;;;;;;;1475060;40;6999;-61
2021/05/11 06:42:41;;;;;;;;;;;;;;;;;;1478403;40;7113;-61
2021/05/11 06:43:45;;;;;;;;;;;;;;;;;;1478869;40;7004;-63
2021/05/11 06:53:17;;;;;;;;;;;;;;;;;;1474579;40;7031;-65
2021/05/11 06:54:19;;;;;;;;;;;;;;;;;;1474873;40;7016;-62
2021/05/11 06:55:22;;;;;;;;;;;;;;;;;;1474882;40;7048;-63
2021/05/11 06:56:24;;;;;;;;;;;;;;;;;;1474900;40;7040;-61
2021/05/11 06:57:27;;;;;;;;;;;;;;;;;;1475028;40;7879;-63
2021/05/11 06:58:29;;;;;;;;;;;;;;;;;;1478672;40;7031;-63
2021/05/11 06:59:32;;;;;;;;;;;;;;;;;;1479160;40;7031;-61
2021/05/11 07:00:35;;;;;;;;;;;;;;;;;;1479014;40;7007;-64
2021/05/11 07:01:37;;;;;;;;;;;;;;;;;;1478740;40;7000;-62
2021/05/11 07:02:40;;;;;;;;;;;;;;;;;;1479402;40;7177;-63
2021/05/11 07:03:42;;;;;;;;;;;;;;;;;;1479481;40;7893;-61
2021/05/11 07:04:48;;;;;;;;;;;;;;;;;;1479555;40;7228;-61
2021/05/11 07:05:52;;;;;;;;;;;;;;;;;;1475696;40;7891;-63
2021/05/11 07:06:55;;;;;;;;;;;;;;;;;;1475667;40;7012;-62
2021/05/11 07:08:35;;;;;;;;;;;;;;;;;;1475315;40;7004;-65
2021/05/11 07:10:52;;;;;;;;;;;;;;;;;;1475485;40;7023;-62
2021/05/11 07:13:10;;;;;;;;;;;;;;;;;;1475251;40;7031;-62
2021/05/11 07:14:13;;;;;;;;;;;;;;;;;;1475110;40;7098;-63
2021/05/11 07:15:16;;;;;;;;;;;;;;;;;;1475464;40;7095;-63
2021/05/11 07:16:18;;;;;;;;;;;;;;;;;;1475114;40;7857;-62
2021/05/11 07:17:21;;;;;;;;;;;;;;;;;;1475904;40;7942;-63
2021/05/11 07:18:24;;;;;;;;;;;;;;;;;;1475132;40;7003;-64
2021/05/11 07:19:28;;;;;;;;;;;;;;;;;;1475385;40;7035;-64
2021/05/11 07:20:30;;;;;;;;;;;;;;;;;;1475198;40;7008;-62
2021/05/11 07:21:33;;;;;;;;;;;;;;;;;;1477022;40;9015;-64
2021/05/11 07:22:35;;;;;;;;;;;;;;;;;;1479087;40;7007;-62
2021/05/11 07:23:38;;;;;;;;;;;;;;;;;;1475074;40;7015;-63
2021/05/11 07:24:43;;;;;;;;;;;;;;;;;;1478946;40;7048;-62
2021/05/11 07:30:52;;;;;;;;;;;;;;;;;;1478456;40;7233;-62
2021/05/11 07:31:55;;;;;;;;;;;;;;;;;;1479211;40;7944;-62
2021/05/11 07:32:57;;;;;;;;;;;;;;;;;;1479336;40;7035;-62
2021/05/11 07:34:02;;;;;;;;;;;;;;;;;;1479435;40;7003;-63
2021/05/11 07:35:05;;;;;;;;;;;;;;;;;;1478476;40;7038;-61
2021/05/11 07:36:08;;;;;;;;;;;;;;;;;;1479103;40;7003;-63
2021/05/11 07:37:11;;;;;;;;;;;;;;;;;;1479444;40;8043;-62
2021/05/11 07:38:14;;;;;;;;;;;;;;;;;;1479688;40;7027;-64
2021/05/11 07:39:16;;;;;;;;;;;;;;;;;;1479896;40;7003;-60
2021/05/11 07:40:19;;;;;;;;;;;;;;;;;;1479703;40;7003;-62
2021/05/11 07:41:21;;;;;;;;;;;;;;;;;;1479533;40;7125;-62
2021/05/11 07:42:24;;;;;;;;;;;;;;;;;;1479270;40;7007;-61
2021/05/11 07:43:27;;;;;;;;;;;;;;;;;;1479057;40;7003;-64
2021/05/11 07:44:31;;;;;;;;;;;;;;;;;;1475404;40;7120;-62
2021/05/11 07:47:02;;;;;;;;;;;;;;;;;;1479554;40;7003;-63
2021/05/11 08:14:47;;;;;;;;;;;;;;;;;;1478805;40;7004;-64
2021/05/11 08:15:58;;;;;;;;;;;;;;;;;;1475500;40;7942;-62
2021/05/11 08:17:02;;;;;;;;;;;;;;;;;;1475386;40;7024;-60
2021/05/11 08:28:22;;;;;;;;;;;;;;;;;;1474828;40;7933;-63
2021/05/11 08:29:24;;;;;;;;;;;;;;;;;;1475013;40;7888;-62
2021/05/11 08:30:27;;;;;;;;;;;;;;;;;;1470434;40;7112;-62
2021/05/11 08:31:30;;;;;;;;;;;;;;;;;;1471080;40;7000;-65
2021/05/11 08:32:32;;;;;;;;;;;;;;;;;;1471101;40;7000;-64
2021/05/11 08:33:35;;;;;;;;;;;;;;;;;;1471191;40;7011;-61
2021/05/11 08:34:38;;;;;;;;;;;;;;;;;;1471372;40;7008;-63
2021/05/11 08:35:40;;;;;;;;;;;;;;;;;;1470590;40;7108;-63
2021/05/11 08:36:43;;;;;;;;;;;;;;;;;;1471049;40;7884;-63
2021/05/11 08:37:46;;;;;;;;;;;;;;;;;;1471201;40;7179;-65
2021/05/11 08:38:48;;;;;;;;;;;;;;;;;;1471112;40;6999;-62
2021/05/11 08:39:53;;;;;;;;;;;;;;;;;;1471226;40;7921;-62
2021/05/11 08:40:57;;;;;;;;;;;;;;;;;;1470888;40;7115;-65
2021/05/11 08:41:59;;;;;;;;;;;;;;;;;;1470942;40;7934;-63
2021/05/11 08:43:08;;;;;;;;;;;;;;;;;;1471075;40;7044;-62
2021/05/11 08:44:14;;;;;;;;;;;;;;;;;;1474764;40;7178;-61
2021/05/11 08:45:17;;;;;;;;;;;;;;;;;;1474672;40;7007;-63
2021/05/11 08:46:19;;;;;;;;;;;;;;;;;;1471750;40;7039;-63
2021/05/11 08:47:22;;;;;;;;;;;;;;;;;;1475318;40;7015;-61
2021/05/11 08:48:24;;;;;;;;;;;;;;;;;;1475199;40;8010;-63
2021/05/11 08:49:27;;;;;;;;;;;;;;;;;;1474960;40;7007;-62
2021/05/11 08:50:37;;;;;;;;;;;;;;;;;;1475038;40;8032;-62
2021/05/11 08:51:51;;;;;;;;;;;;;;;;;;1474927;40;8347;-63
2021/05/11 08:54:26;;;;;;;;;;;;;;;;;;1475506;40;7885;-63
2021/05/11 09:08:01;;;;;;;;;;;;;;;;;;1471021;40;7135;-62
2021/05/11 09:08:37;;;;;;;;;;;;;;;;;;1471545;40;7024;-65
2021/05/11 09:14:06;;;;;;;;;;;;;;;;;;1475374;40;7009;-62
2021/05/11 09:25:43;;;;;;;;;;;;;;;;;;1478702;40;8021;-62
2021/05/11 09:27:11;;;;;;;;;;;;;;;;;;1478961;40;7016;-61
2021/05/11 09:29:54;;;;;;;;;;;;;;;;;;1479324;40;7024;-61
2021/05/11 09:31:08;;;;;;;;;;;;;;;;;;1478878;40;7081;-65
2021/05/11 09:33:41;;;;;;;;;;;;;;;;;;1479623;40;7002;-62
2021/05/11 09:55:17;;;;;;;;;;;;;;;;;;1478956;40;7003;-60
2021/05/11 10:32:32;;;;;;;;;;;;;;;;;;1474885;40;7030;-63
2021/05/11 10:36:58;;;;;;;;;;;;;;;;;;1476603;40;7044;-61
2021/05/11 10:39:37;;;;;;;;;;;;;;;;;;1478960;40;7129;-63
2021/05/11 10:43:43;;;;;;;;;;;;;;;;;;1478893;40;7043;-60
2021/05/11 10:47:33;;;;;;;;;;;;;;;;;;1469675;40;7004;-61
2021/05/11 10:48:37;;;;;;;;;;;;;;;;;;1470095;40;7056;-65
2021/05/11 10:49:40;;;;;;;;;;;;;;;;;;1478637;40;7911;-61
2021/05/11 10:50:58;;;;;;;;;;;;;;;;;;1478825;40;7035;-63
2021/05/11 10:52:15;;;;;;;;;;;;;;;;;;1479188;40;7238;-66
2021/05/11 10:53:36;;;;;;;;;;;;;;;;;;1479266;40;7016;-61
2021/05/11 10:54:52;;;;;;;;;;;;;;;;;;1478979;40;7039;-63
2021/05/11 10:55:56;;;;;;;;;;;;;;;;;;1478415;40;7114;-64
2021/05/11 10:57:01;;;;;;;;;;;;;;;;;;1479414;40;7008;-61
2021/05/11 10:58:06;;;;;;;;;;;;;;;;;;1479458;40;7067;-64
2021/05/11 11:01:32;;;;;;;;;;;;;;;;;;1479600;40;7313;-63
2021/05/11 11:03:39;;;;;;;;;;;;;;;;;;1479027;40;7008;-61
2021/05/11 11:04:45;;;;;;;;;;;;;;;;;;1478902;40;7039;-64